KCUH/CUH METAR and TAF weather

Enter ICAO airport designator
Station Type Date Time Source
KCUH METAR 2021/05/13 06:15 UTC NOAA

KCUH 130615Z AUTO 00000KT 10SM CLR 09/08 A3035 RMK AO2 T00900075


Station Type Date Time Source
KCUH Decoded METAR 2021/05/13 06:15 UTC NOAA

Cushing, Cushing Municipal Airport, OK, United States (KCUH) 35-56-59N 096-46-22W
May 13, 2021 - 02:15 AM EDT / 2021.05.13 0615 UTC
Wind: Calm:0
Visibility: 10 mile(s):0
Sky conditions: clear
Temperature: 48.2 F (9.0 C)
Dew Point: 45.5 F (7.5 C)
Relative Humidity: 90%
Pressure (altimeter): 30.35 in. Hg (1027 hPa)
ob: KCUH 130615Z AUTO 00000KT 10SM CLR 09/08 A3035 RMK AO2 T00900075
cycle: 6

Station Type Date Time Source
KCUH TAF UTC NOAA

Error!

Example: see airport list